createdAt,value
2023-01-21T00:01:18.591Z,6.47
2023-01-21T00:03:47.280Z,6.03
2023-01-21T00:06:16.069Z,7.27
2023-01-21T00:08:44.324Z,5.50
2023-01-21T00:11:15.625Z,7.80
2023-01-21T00:13:44.713Z,7.27
2023-01-21T00:16:15.354Z,7.43
2023-01-21T00:18:43.694Z,7.50
2023-01-21T00:21:11.923Z,6.83
2023-01-21T00:23:40.117Z,8.23
2023-01-21T00:26:10.971Z,6.30
2023-01-21T00:28:41.691Z,7.10
2023-01-21T00:31:11.896Z,7.80
2023-01-21T00:33:40.163Z,7.30
2023-01-21T00:36:11.993Z,6.43
2023-01-21T00:38:40.772Z,7.40
2023-01-21T00:41:11.788Z,7.90
2023-01-21T00:43:41.974Z,8.53
2023-01-21T00:46:11.316Z,7.87
2023-01-21T00:48:40.288Z,8.40
2023-01-21T00:51:08.551Z,7.40
2023-01-21T00:53:39.081Z,7.43
2023-01-21T00:56:10.545Z,8.97
2023-01-21T00:58:40.264Z,8.20
2023-01-21T01:01:11.560Z,7.63
2023-01-21T01:03:40.861Z,8.67
2023-01-21T01:06:12.472Z,6.90
2023-01-21T01:08:40.752Z,8.63
2023-01-21T01:11:09.059Z,8.07
2023-01-21T01:13:38.246Z,9.20
2023-01-21T01:16:08.259Z,8.10
2023-01-21T01:18:38.316Z,6.93
2023-01-21T01:21:07.769Z,6.27
2023-01-21T01:23:35.960Z,7.00
2023-01-21T01:26:07.001Z,7.07
2023-01-21T01:28:35.560Z,6.40
2023-01-21T01:31:08.376Z,5.17
2023-01-21T01:33:37.406Z,6.07
2023-01-21T01:36:08.246Z,5.43
2023-01-21T01:38:36.319Z,6.07
2023-01-21T01:41:04.951Z,6.80
2023-01-21T01:43:58.852Z,5.30
2023-01-21T01:46:30.318Z,6.27
2023-01-21T01:49:05.249Z,5.90
2023-01-21T01:51:42.987Z,6.90
2023-01-21T01:54:13.446Z,5.97
2023-01-21T01:56:43.806Z,7.33
2023-01-21T01:59:12.532Z,4.63
2023-01-21T02:01:41.986Z,6.30
2023-01-21T02:04:16.939Z,5.50
2023-01-21T02:06:46.888Z,6.63
2023-01-21T02:09:14.918Z,6.87
2023-01-21T02:11:42.988Z,5.47
2023-01-21T02:14:11.171Z,5.50
2023-01-21T02:17:08.010Z,6.37
2023-01-21T02:20:14.268Z,5.73
2023-01-21T02:22:52.680Z,6.90
2023-01-21T02:26:11.222Z,6.53
2023-01-21T02:29:27.265Z,6.97
2023-01-21T02:32:33.915Z,5.73
2023-01-21T02:35:08.995Z,7.37
2023-01-21T02:37:44.813Z,5.77
2023-01-21T02:40:19.827Z,5.47
2023-01-21T02:42:52.207Z,7.03
2023-01-21T02:45:29.732Z,6.17
2023-01-21T02:48:06.105Z,6.60
2023-01-21T02:50:37.748Z,6.73
2023-01-21T02:53:06.985Z,6.67
2023-01-21T02:55:38.306Z,5.90
2023-01-21T02:58:09.956Z,6.23
2023-01-21T03:00:56.062Z,5.77
2023-01-21T03:03:43.771Z,5.40
2023-01-21T03:06:30.997Z,5.40
2023-01-21T03:09:07.927Z,6.00
2023-01-21T03:11:36.139Z,6.07
2023-01-21T03:14:35.687Z,6.13
2023-01-21T03:17:13.052Z,7.20
2023-01-21T03:19:46.137Z,6.80
2023-01-21T03:22:20.715Z,5.50
2023-01-21T03:24:52.580Z,6.20
2023-01-21T03:27:26.966Z,5.87
2023-01-21T03:30:00.123Z,6.73
2023-01-21T03:32:32.544Z,6.83
2023-01-21T03:35:04.806Z,5.53
2023-01-21T03:37:39.297Z,5.50
2023-01-21T03:40:18.999Z,4.97
2023-01-21T03:42:50.397Z,5.80
2023-01-21T03:45:25.049Z,7.43
2023-01-21T03:48:00.111Z,6.13
2023-01-21T03:50:35.648Z,5.00
2023-01-21T03:53:05.698Z,4.97
2023-01-21T03:55:35.479Z,4.87
2023-01-21T03:58:03.662Z,5.00
2023-01-21T04:00:31.695Z,4.80
2023-01-21T04:02:59.647Z,4.47
2023-01-21T04:05:27.685Z,4.53
2023-01-21T04:07:55.736Z,5.90
2023-01-21T04:10:25.047Z,4.60
2023-01-21T04:12:52.984Z,4.63
2023-01-21T04:15:20.989Z,4.87
2023-01-21T04:17:48.991Z,5.00
2023-01-21T04:20:17.793Z,4.43
2023-01-21T04:22:45.906Z,5.00
2023-01-21T04:25:13.959Z,4.37
2023-01-21T04:27:43.326Z,4.73
2023-01-21T04:30:12.322Z,5.20
2023-01-21T04:32:40.318Z,5.13
2023-01-21T04:35:09.688Z,4.30
2023-01-21T04:37:37.726Z,4.10
2023-01-21T04:40:07.299Z,4.90
2023-01-21T04:42:35.340Z,4.00
2023-01-21T04:45:05.875Z,5.97
2023-01-21T04:47:33.876Z,4.27
2023-01-21T04:50:02.105Z,3.97
2023-01-21T04:52:30.415Z,4.23
2023-01-21T04:54:58.424Z,3.90
2023-01-21T04:57:26.364Z,4.77
2023-01-21T04:59:54.388Z,4.77
2023-01-21T05:02:23.720Z,4.37
2023-01-21T05:04:51.756Z,3.97
2023-01-21T05:07:21.698Z,4.60
2023-01-21T05:09:49.944Z,4.80
2023-01-21T05:12:18.129Z,4.13
2023-01-21T05:14:46.235Z,4.43
2023-01-21T05:17:14.207Z,4.03
2023-01-21T05:19:43.491Z,3.70
2023-01-21T05:22:11.433Z,4.23
2023-01-21T05:24:39.414Z,3.53
2023-01-21T05:27:07.412Z,3.53
2023-01-21T05:29:35.409Z,3.47
2023-01-21T05:32:03.431Z,4.73
2023-01-21T05:34:31.414Z,4.50
2023-01-21T05:37:00.824Z,3.90
2023-01-21T05:39:28.807Z,4.40
2023-01-21T05:41:56.824Z,3.20
2023-01-21T05:44:24.925Z,3.63
2023-01-21T05:46:52.882Z,3.90
2023-01-21T05:49:20.908Z,3.90
2023-01-21T05:51:48.933Z,4.27
2023-01-21T05:54:18.350Z,4.97
2023-01-21T05:56:46.372Z,3.87
2023-01-21T05:59:14.526Z,4.70
2023-01-21T06:01:42.558Z,3.20
2023-01-21T06:04:10.574Z,4.43
2023-01-21T06:06:40.514Z,3.90
2023-01-21T06:09:08.773Z,4.03
2023-01-21T06:11:38.131Z,3.27
2023-01-21T06:14:06.156Z,3.10
2023-01-21T06:16:34.196Z,3.53
2023-01-21T06:19:03.213Z,4.77
2023-01-21T06:21:31.301Z,4.17
2023-01-21T06:24:00.636Z,4.23
2023-01-21T06:26:28.712Z,5.07
2023-01-21T06:28:58.691Z,4.30
2023-01-21T06:31:26.933Z,3.83
2023-01-21T06:33:54.996Z,3.50
2023-01-21T06:36:23.012Z,4.10
2023-01-21T06:38:50.992Z,5.97
2023-01-21T06:41:19.158Z,3.80
2023-01-21T06:43:47.161Z,4.47
2023-01-21T06:46:16.660Z,4.10
2023-01-21T06:48:44.652Z,5.10
2023-01-21T06:51:12.745Z,3.23
2023-01-21T06:53:40.792Z,3.30
2023-01-21T06:56:08.978Z,4.83
2023-01-21T06:58:36.984Z,4.33
2023-01-21T07:01:05.171Z,3.63
2023-01-21T07:03:34.524Z,3.90
2023-01-21T07:06:02.676Z,3.27
2023-01-21T07:08:30.778Z,4.87
2023-01-21T07:10:58.787Z,3.53
2023-01-21T07:13:26.748Z,4.10
2023-01-21T07:16:00.161Z,4.40
2023-01-21T07:18:28.274Z,5.00
2023-01-21T07:20:59.273Z,3.80
2023-01-21T07:23:27.403Z,5.00
2023-01-21T07:25:55.621Z,6.40
2023-01-21T07:28:23.683Z,4.57
2023-01-21T07:30:51.735Z,4.20
2023-01-21T07:33:19.844Z,4.50
2023-01-21T07:35:47.896Z,5.40
2023-01-21T07:38:17.203Z,6.20
2023-01-21T07:40:45.455Z,6.10
2023-01-21T07:43:13.460Z,4.90
2023-01-21T07:45:41.948Z,6.67
2023-01-21T07:48:11.143Z,7.90
2023-01-21T07:50:41.140Z,6.33
2023-01-21T07:53:10.497Z,7.30
2023-01-21T07:55:39.917Z,6.50
2023-01-21T07:58:07.913Z,8.97
2023-01-21T08:00:35.999Z,8.40
2023-01-21T08:03:04.103Z,6.93
2023-01-21T08:05:32.224Z,7.17
2023-01-21T08:08:00.426Z,6.57
2023-01-21T08:10:28.758Z,8.00
2023-01-21T08:12:58.199Z,7.77
2023-01-21T08:15:26.282Z,6.77
2023-01-21T08:17:54.306Z,7.33
2023-01-21T08:20:22.381Z,7.70
2023-01-21T08:22:50.430Z,8.97
2023-01-21T08:25:19.406Z,8.67
2023-01-21T08:27:47.535Z,7.20
2023-01-21T08:30:18.242Z,8.30
2023-01-21T08:32:46.502Z,8.00
2023-01-21T08:35:14.641Z,8.23
2023-01-21T08:37:42.701Z,6.67
2023-01-21T08:40:12.520Z,8.07
2023-01-21T08:42:40.629Z,7.50
2023-01-21T08:45:10.307Z,6.80
2023-01-21T08:47:39.692Z,6.17
2023-01-21T08:50:09.466Z,7.00
2023-01-21T08:52:37.481Z,6.30
2023-01-21T08:55:06.124Z,6.00
2023-01-21T08:57:34.269Z,6.63
2023-01-21T09:00:02.354Z,6.00
2023-01-21T09:02:30.446Z,6.43
2023-01-21T09:04:59.908Z,6.63
2023-01-21T09:07:27.976Z,6.50
2023-01-21T09:09:56.003Z,6.30
2023-01-21T09:12:23.987Z,6.57
2023-01-21T09:14:51.997Z,5.50
2023-01-21T09:17:20.086Z,5.33
2023-01-21T09:19:48.204Z,5.20
2023-01-21T09:22:17.968Z,4.87
2023-01-21T09:24:45.978Z,6.37
2023-01-21T09:27:14.007Z,5.00
2023-01-21T09:29:42.029Z,5.30
2023-01-21T09:32:10.149Z,5.80
2023-01-21T09:34:38.568Z,6.73
2023-01-21T09:37:06.588Z,6.50
2023-01-21T09:39:35.988Z,6.17
2023-01-21T09:42:04.241Z,6.87
2023-01-21T09:44:36.561Z,5.83
2023-01-21T09:47:12.831Z,5.93
2023-01-21T09:49:45.338Z,6.23
2023-01-21T09:52:28.952Z,5.00
2023-01-21T09:54:59.399Z,6.20
2023-01-21T09:58:06.149Z,4.73
2023-01-21T10:00:41.957Z,4.87
2023-01-21T10:03:25.124Z,4.33
2023-01-21T10:06:24.328Z,4.83
2023-01-21T10:09:16.093Z,5.60
2023-01-21T10:12:03.191Z,5.57
2023-01-21T10:15:10.791Z,5.93
2023-01-21T10:17:51.875Z,5.60
2023-01-21T10:20:26.996Z,6.37
2023-01-21T10:23:02.660Z,5.80
2023-01-21T10:25:33.926Z,6.10
2023-01-21T10:28:12.038Z,5.17
2023-01-21T10:30:43.328Z,5.60
2023-01-21T10:33:20.203Z,5.10
2023-01-21T10:36:11.217Z,5.20
2023-01-21T10:38:47.852Z,4.47
2023-01-21T10:41:36.503Z,4.73
2023-01-21T10:44:18.310Z,5.00
2023-01-21T10:46:55.203Z,5.63
2023-01-21T10:49:32.777Z,4.77
2023-01-21T10:52:07.008Z,4.73
2023-01-21T10:54:49.030Z,5.07
2023-01-21T10:57:35.358Z,5.10
2023-01-21T11:00:07.453Z,5.33
2023-01-21T11:02:36.017Z,5.13
2023-01-21T11:05:07.250Z,5.70
2023-01-21T11:07:42.256Z,5.50
2023-01-21T11:10:15.101Z,4.30
2023-01-21T11:12:43.166Z,6.47
2023-01-21T11:15:17.375Z,4.47
2023-01-21T11:17:48.200Z,5.67
2023-01-21T11:20:25.941Z,6.47
2023-01-21T11:22:54.185Z,7.17
2023-01-21T11:25:38.000Z,6.10
2023-01-21T11:28:06.781Z,6.13
2023-01-21T11:30:51.073Z,4.20
2023-01-21T11:33:26.513Z,4.50
2023-01-21T11:35:56.482Z,5.13
2023-01-21T11:38:34.929Z,5.23
2023-01-21T11:41:16.465Z,4.77
2023-01-21T11:43:47.388Z,4.30
2023-01-21T11:46:36.774Z,6.47
2023-01-21T11:49:28.629Z,4.37
2023-01-21T11:52:18.281Z,4.90
2023-01-21T11:54:47.370Z,5.97
2023-01-21T11:57:29.592Z,5.23
2023-01-21T12:00:07.436Z,5.33
2023-01-21T12:02:41.754Z,4.43
2023-01-21T12:05:17.652Z,5.43
2023-01-21T12:07:50.974Z,4.83
2023-01-21T12:10:30.399Z,5.00
2023-01-21T12:13:17.845Z,5.23
2023-01-21T12:16:10.543Z,4.23
2023-01-21T12:19:19.689Z,4.30
2023-01-21T12:22:08.082Z,4.80
2023-01-21T12:24:55.207Z,4.97
2023-01-21T12:27:33.787Z,4.80
2023-01-21T12:30:19.401Z,4.93
2023-01-21T12:32:53.271Z,4.37
2023-01-21T12:35:29.472Z,4.40
2023-01-21T12:38:04.105Z,4.70
2023-01-21T12:40:37.015Z,4.47
2023-01-21T12:43:18.171Z,5.00
2023-01-21T12:45:50.868Z,5.27
2023-01-21T12:48:29.346Z,4.20
2023-01-21T12:51:05.273Z,4.23
2023-01-21T12:53:40.313Z,4.83
2023-01-21T12:56:30.001Z,4.80
2023-01-21T12:59:02.511Z,4.37
2023-01-21T13:01:54.649Z,3.60
2023-01-21T13:04:44.937Z,3.63
2023-01-21T13:07:27.419Z,4.60
2023-01-21T13:10:02.962Z,4.10
2023-01-21T13:12:36.607Z,2.90
2023-01-21T13:15:16.851Z,4.03
2023-01-21T13:17:49.800Z,3.97
2023-01-21T13:20:21.025Z,3.83
2023-01-21T13:23:01.089Z,1.53
2023-01-21T13:25:39.141Z,4.00
2023-01-21T13:28:17.554Z,3.17
2023-01-21T13:30:52.212Z,3.57
2023-01-21T13:33:35.330Z,2.13
2023-01-21T13:36:30.231Z,3.70
2023-01-21T13:39:06.254Z,3.50
2023-01-21T13:41:57.231Z,3.30
2023-01-21T13:44:57.746Z,2.63
2023-01-21T13:47:44.135Z,3.70
2023-01-21T13:50:26.110Z,2.70
2023-01-21T13:53:16.002Z,3.60
2023-01-21T13:55:58.086Z,3.10
2023-01-21T13:58:38.434Z,3.57
2023-01-21T14:01:13.577Z,2.90
2023-01-21T14:03:46.431Z,2.40
2023-01-21T14:06:20.459Z,3.23
2023-01-21T14:08:53.833Z,3.23
2023-01-21T14:11:30.402Z,2.23
2023-01-21T14:14:28.937Z,2.30
2023-01-21T14:17:28.475Z,2.77
2023-01-21T14:20:24.126Z,2.47
2023-01-21T14:23:11.955Z,2.20
2023-01-21T14:26:00.749Z,2.73
2023-01-21T14:28:37.879Z,3.00
2023-01-21T14:31:12.179Z,2.93
2023-01-21T14:33:47.945Z,2.27
2023-01-21T14:36:23.661Z,5.47
2023-01-21T14:39:02.504Z,2.80
2023-01-21T14:41:55.693Z,2.97
2023-01-21T14:44:41.563Z,2.90
2023-01-21T14:47:19.310Z,2.43
2023-01-21T14:49:50.142Z,2.40
2023-01-21T14:52:20.721Z,2.67
2023-01-21T14:54:49.892Z,2.97
2023-01-21T14:57:31.794Z,2.53
2023-01-21T15:00:21.692Z,2.97
2023-01-21T15:02:55.848Z,3.07
2023-01-21T15:05:26.810Z,2.40
2023-01-21T15:08:07.450Z,2.57
2023-01-21T15:10:39.517Z,2.77
2023-01-21T15:13:29.352Z,3.30
2023-01-21T15:16:15.928Z,3.07
2023-01-21T15:18:48.470Z,2.60
2023-01-21T15:21:37.607Z,3.70
2023-01-21T15:24:30.790Z,2.30
2023-01-21T15:27:18.998Z,3.77
2023-01-21T15:30:28.119Z,3.10
2023-01-21T15:32:58.971Z,2.57
2023-01-21T15:35:34.565Z,3.83
2023-01-21T15:38:10.825Z,2.80
2023-01-21T15:40:43.113Z,3.40
2023-01-21T15:43:21.474Z,3.60
2023-01-21T15:45:56.729Z,2.83
2023-01-21T15:49:06.476Z,2.73
2023-01-21T15:51:49.287Z,3.13
2023-01-21T15:54:31.625Z,3.10
2023-01-21T15:57:18.719Z,2.80
2023-01-21T16:00:04.705Z,2.80
2023-01-21T16:02:39.526Z,2.97
2023-01-21T16:05:25.509Z,3.33
2023-01-21T16:08:17.887Z,3.17
2023-01-21T16:11:02.418Z,2.53
2023-01-21T16:13:44.507Z,2.63
2023-01-21T16:16:27.001Z,2.70
2023-01-21T16:19:00.142Z,3.30
2023-01-21T16:21:34.759Z,3.77
2023-01-21T16:24:08.411Z,3.43
2023-01-21T16:26:36.503Z,3.17
2023-01-21T16:29:13.243Z,2.73
2023-01-21T16:31:52.972Z,15.40
2023-01-21T16:34:41.578Z,14.17
2023-01-21T16:37:13.905Z,6.97
2023-01-21T16:39:42.838Z,4.43
2023-01-21T16:42:25.885Z,4.67
2023-01-21T16:44:54.304Z,3.10
2023-01-21T16:47:27.240Z,3.67
2023-01-21T16:49:55.357Z,4.60
2023-01-21T16:52:24.865Z,2.80
2023-01-21T16:54:55.043Z,3.57
2023-01-21T16:57:28.804Z,3.10
2023-01-21T16:59:58.028Z,4.17
2023-01-21T17:02:32.337Z,3.40
2023-01-21T17:05:05.846Z,4.27
2023-01-21T17:07:42.216Z,2.93
2023-01-21T17:10:20.896Z,3.53
2023-01-21T17:12:51.519Z,3.27
2023-01-21T17:15:25.895Z,4.00
2023-01-21T17:17:57.520Z,3.47
2023-01-21T17:20:38.173Z,2.60
2023-01-21T17:23:10.666Z,3.10
2023-01-21T17:25:38.844Z,3.13
2023-01-21T17:28:31.495Z,3.67
2023-01-21T17:31:23.585Z,3.50
2023-01-21T17:34:20.774Z,3.70
2023-01-21T17:36:52.146Z,4.37
2023-01-21T17:40:00.842Z,3.53
2023-01-21T17:42:40.047Z,2.93
2023-01-21T17:45:19.401Z,5.00
2023-01-21T17:48:12.455Z,5.60
2023-01-21T17:50:47.020Z,4.10
2023-01-21T17:53:23.205Z,4.10
2023-01-21T17:56:02.704Z,3.60
2023-01-21T17:58:51.838Z,3.17
2023-01-21T18:01:21.434Z,4.57
2023-01-21T18:03:49.606Z,3.60
2023-01-21T18:06:21.126Z,3.63
2023-01-21T18:08:50.432Z,4.47
2023-01-21T18:11:20.030Z,2.53
2023-01-21T18:13:48.992Z,4.27
2023-01-21T18:16:17.075Z,4.80
2023-01-21T18:18:45.368Z,4.90
2023-01-21T18:21:20.048Z,2.87
2023-01-21T18:23:48.620Z,3.60
2023-01-21T18:26:27.756Z,3.93
2023-01-21T18:28:55.821Z,3.47
2023-01-21T18:31:24.056Z,2.70
2023-01-21T18:33:52.320Z,4.10
2023-01-21T18:36:20.355Z,4.60
2023-01-21T18:38:48.358Z,4.90
2023-01-21T18:41:16.372Z,4.17
2023-01-21T18:43:45.756Z,6.23
2023-01-21T18:46:16.198Z,3.90
2023-01-21T18:48:44.354Z,4.10
2023-01-21T18:51:14.105Z,4.80
2023-01-21T18:53:42.133Z,3.20
2023-01-21T18:56:15.252Z,5.00
2023-01-21T18:58:44.849Z,2.70
2023-01-21T19:01:22.989Z,5.03
2023-01-21T19:03:54.474Z,2.63
2023-01-21T19:06:25.032Z,3.73
2023-01-21T19:08:54.816Z,4.60
2023-01-21T19:11:22.813Z,4.53
2023-01-21T19:13:52.562Z,4.10
2023-01-21T19:16:22.176Z,3.70
2023-01-21T19:18:50.329Z,3.40
2023-01-21T19:21:18.380Z,3.17
2023-01-21T19:23:46.567Z,3.33
2023-01-21T19:26:15.221Z,2.40
2023-01-21T19:28:43.448Z,3.40
2023-01-21T19:31:12.943Z,4.03
2023-01-21T19:33:42.784Z,2.80
2023-01-21T19:36:16.344Z,3.20
2023-01-21T19:38:51.432Z,2.57
2023-01-21T19:41:19.436Z,4.07
2023-01-21T19:43:47.549Z,3.00
2023-01-21T19:46:17.130Z,4.87
2023-01-21T19:48:45.485Z,5.47
2023-01-21T19:51:14.270Z,3.43
2023-01-21T19:53:42.270Z,3.13
2023-01-21T19:56:15.418Z,4.37
2023-01-21T19:58:43.540Z,4.77
2023-01-21T20:01:12.545Z,3.67
2023-01-21T20:03:54.592Z,3.43
2023-01-21T20:06:28.013Z,3.37
2023-01-21T20:08:56.146Z,3.77
2023-01-21T20:11:24.201Z,3.30
2023-01-21T20:13:52.284Z,4.50
2023-01-21T20:16:23.521Z,4.10
2023-01-21T20:18:54.738Z,4.70
2023-01-21T20:21:23.394Z,4.03
2023-01-21T20:23:51.349Z,4.73
2023-01-21T20:26:25.207Z,4.67
2023-01-21T20:28:54.549Z,3.80
2023-01-21T20:31:23.208Z,4.03
2023-01-21T20:33:53.004Z,5.40
2023-01-21T20:36:27.402Z,3.33
2023-01-21T20:38:56.900Z,3.70
2023-01-21T20:41:24.897Z,3.90
2023-01-21T20:43:53.222Z,3.77
2023-01-21T20:46:24.506Z,3.97
2023-01-21T20:48:54.332Z,5.13
2023-01-21T20:51:22.692Z,4.50
2023-01-21T20:53:50.830Z,4.50
2023-01-21T20:56:22.796Z,3.77
2023-01-21T20:58:51.770Z,4.67
2023-01-21T21:01:22.055Z,3.40
2023-01-21T21:03:51.166Z,5.50
2023-01-21T21:06:22.811Z,4.60
2023-01-21T21:08:51.558Z,4.30
2023-01-21T21:11:20.703Z,3.33
2023-01-21T21:13:52.219Z,4.20
2023-01-21T21:16:23.768Z,4.07
2023-01-21T21:18:52.297Z,4.80
2023-01-21T21:21:23.861Z,5.00
2023-01-21T21:23:52.627Z,4.07
2023-01-21T21:26:24.729Z,4.67
2023-01-21T21:28:55.250Z,4.40
2023-01-21T21:31:24.652Z,5.27
2023-01-21T21:33:53.128Z,4.90
2023-01-21T21:36:24.576Z,4.00
2023-01-21T21:38:55.555Z,4.53
2023-01-21T21:41:44.137Z,4.40
2023-01-21T21:44:13.609Z,4.37
2023-01-21T21:46:59.200Z,4.47
2023-01-21T21:49:27.833Z,5.10
2023-01-21T21:51:59.721Z,3.83
2023-01-21T21:54:28.086Z,4.53
2023-01-21T21:56:57.980Z,5.40
2023-01-21T21:59:26.332Z,4.63
2023-01-21T22:01:54.414Z,6.23
2023-01-21T22:04:23.568Z,4.50
2023-01-21T22:06:51.784Z,4.57
2023-01-21T22:09:21.507Z,4.20
2023-01-21T22:11:49.563Z,5.20
2023-01-21T22:14:17.981Z,5.87
2023-01-21T22:16:46.312Z,4.60
2023-01-21T22:19:14.439Z,5.87
2023-01-21T22:21:42.483Z,5.87
2023-01-21T22:24:11.573Z,5.37
2023-01-21T22:26:41.031Z,5.77
2023-01-21T22:29:09.181Z,6.53
2023-01-21T22:31:37.381Z,5.67
2023-01-21T22:34:05.660Z,4.70
2023-01-21T22:36:34.215Z,5.33
2023-01-21T22:39:02.596Z,5.67
2023-01-21T22:41:30.928Z,6.63
2023-01-21T22:44:00.412Z,6.30
2023-01-21T22:46:31.349Z,7.03
2023-01-21T22:48:59.608Z,5.40
2023-01-21T22:51:28.383Z,8.10
2023-01-21T22:53:57.064Z,5.33
2023-01-21T22:56:44.895Z,6.30
2023-01-21T22:59:15.854Z,5.63
2023-01-21T23:01:44.068Z,6.00
2023-01-21T23:04:12.241Z,6.13
2023-01-21T23:06:40.481Z,5.63
2023-01-21T23:09:11.243Z,6.90
2023-01-21T23:11:41.481Z,6.10
2023-01-21T23:14:10.478Z,5.23
2023-01-21T23:16:40.551Z,6.67
2023-01-21T23:19:08.644Z,5.73
2023-01-21T23:21:38.251Z,4.43
2023-01-21T23:24:07.490Z,4.87
2023-01-21T23:26:35.609Z,5.60
2023-01-21T23:29:04.075Z,5.67
2023-01-21T23:31:32.157Z,5.20
2023-01-21T23:34:03.239Z,5.60
2023-01-21T23:36:31.240Z,6.03
2023-01-21T23:38:59.205Z,6.30
2023-01-21T23:41:27.187Z,5.57
2023-01-21T23:43:55.226Z,5.83
2023-01-21T23:46:23.253Z,6.10
2023-01-21T23:48:51.347Z,6.70
2023-01-21T23:51:21.014Z,5.90
2023-01-21T23:53:49.966Z,5.90
2023-01-21T23:56:21.049Z,5.50
2023-01-21T23:58:50.109Z,5.87
